createdAt,value
2018-02-27T00:02:07.437Z,-6.00
2018-02-27T00:04:35.023Z,-6.00
2018-02-27T00:07:02.547Z,-6.00
2018-02-27T00:09:30.827Z,-6.00
2018-02-27T00:11:59.128Z,-6.00
2018-02-27T00:14:26.675Z,-6.10
2018-02-27T00:16:54.193Z,-5.90
2018-02-27T00:19:21.744Z,-5.80
2018-02-27T00:21:49.270Z,-5.70
2018-02-27T00:24:16.768Z,-5.70
2018-02-27T00:26:44.302Z,-5.80
2018-02-27T00:29:11.811Z,-5.80
2018-02-27T00:31:39.349Z,-5.90
2018-02-27T00:34:06.885Z,-6.00
2018-02-27T00:36:34.392Z,-5.90
2018-02-27T00:39:01.924Z,-6.00
2018-02-27T00:41:29.481Z,-6.10
2018-02-27T00:43:57.009Z,-6.20
2018-02-27T00:46:24.531Z,-6.20
2018-02-27T00:48:52.860Z,-6.20
2018-02-27T00:51:20.371Z,-6.30
2018-02-27T00:53:48.648Z,-6.10
2018-02-27T00:56:16.170Z,-6.20
2018-02-27T00:58:43.675Z,-6.00
2018-02-27T01:01:11.952Z,-6.00
2018-02-27T01:03:39.542Z,-6.00
2018-02-27T01:06:07.165Z,-6.00
2018-02-27T01:08:34.674Z,-6.20
2018-02-27T01:11:02.958Z,-6.20
2018-02-27T01:13:30.491Z,-6.20
2018-02-27T01:15:58.016Z,-6.20
2018-02-27T01:18:25.585Z,-6.30
2018-02-27T01:20:53.871Z,-6.10
2018-02-27T01:23:21.690Z,-6.10
2018-02-27T01:25:49.209Z,-6.30
2018-02-27T01:28:16.736Z,-6.30
2018-02-27T01:30:44.290Z,-6.20
2018-02-27T01:33:12.584Z,-6.20
2018-02-27T01:35:40.867Z,-6.10
2018-02-27T01:38:08.467Z,-6.20
2018-02-27T01:40:36.007Z,-6.10
2018-02-27T01:43:03.532Z,-6.20
2018-02-27T01:45:31.046Z,-6.30
2018-02-27T01:47:58.560Z,-6.40
2018-02-27T01:50:26.856Z,-6.40
2018-02-27T01:52:54.386Z,-6.40
2018-02-27T01:55:21.895Z,-6.40
2018-02-27T01:57:49.404Z,-6.40
2018-02-27T02:00:17.679Z,-6.40
2018-02-27T02:02:45.966Z,-6.30
2018-02-27T02:05:14.327Z,-6.20
2018-02-27T02:07:41.869Z,-6.30
2018-02-27T02:10:09.432Z,-6.40
2018-02-27T02:12:36.951Z,-6.40
2018-02-27T02:15:04.465Z,-6.40
2018-02-27T02:17:31.970Z,-6.40
2018-02-27T02:19:59.514Z,-6.50
2018-02-27T02:22:27.037Z,-6.50
2018-02-27T02:24:55.348Z,-6.50
2018-02-27T02:27:22.868Z,-6.50
2018-02-27T02:29:50.404Z,-6.60
2018-02-27T02:32:17.912Z,-6.50
2018-02-27T02:34:46.185Z,-6.60
2018-02-27T02:37:14.487Z,-6.60
2018-02-27T02:39:41.994Z,-6.60
2018-02-27T02:42:24.403Z,-6.60
2018-02-27T02:44:51.947Z,-6.60
2018-02-27T02:47:19.479Z,-6.50
2018-02-27T02:49:47.005Z,-6.60
2018-02-27T02:52:14.518Z,-6.70
2018-02-27T02:54:42.061Z,-6.70
2018-02-27T02:57:09.591Z,-6.80
2018-02-27T02:59:37.122Z,-6.80
2018-02-27T03:02:04.633Z,-6.80
2018-02-27T03:04:32.140Z,-6.80
2018-02-27T03:06:59.743Z,-6.70
2018-02-27T03:09:27.321Z,-6.70
2018-02-27T03:11:54.837Z,-6.70
2018-02-27T03:14:22.354Z,-6.80
2018-02-27T03:16:49.870Z,-6.80
2018-02-27T03:19:17.382Z,-6.80
2018-02-27T03:21:44.910Z,-6.80
2018-02-27T03:24:12.630Z,-6.80
2018-02-27T03:26:40.158Z,-6.70
2018-02-27T03:29:07.668Z,-6.70
2018-02-27T03:31:35.955Z,-6.80
2018-02-27T03:34:04.254Z,-6.80
2018-02-27T03:36:31.751Z,-6.80
2018-02-27T03:38:59.365Z,-6.80
2018-02-27T03:41:26.868Z,-6.80
2018-02-27T03:43:54.412Z,-6.80
2018-02-27T03:46:22.710Z,-6.90
2018-02-27T03:48:50.221Z,-6.90
2018-02-27T03:51:17.748Z,-6.90
2018-02-27T03:53:45.265Z,-6.90
2018-02-27T03:56:12.784Z,-6.90
2018-02-27T03:58:41.063Z,-7.10
2018-02-27T04:01:09.337Z,-7.00
2018-02-27T04:03:36.878Z,-7.10
2018-02-27T04:06:04.402Z,-6.90
2018-02-27T04:08:31.916Z,-6.80
2018-02-27T04:11:00.196Z,-6.70
2018-02-27T04:13:28.494Z,-6.80
2018-02-27T04:15:56.076Z,-6.80
2018-02-27T04:18:23.585Z,-6.70
2018-02-27T04:20:51.903Z,-6.80
2018-02-27T04:23:19.415Z,-6.80
2018-02-27T04:25:46.928Z,-6.80
2018-02-27T04:28:14.436Z,-6.80
2018-02-27T04:30:42.731Z,-6.80
2018-02-27T04:33:10.287Z,-6.80
2018-02-27T04:35:37.804Z,-6.80
2018-02-27T04:38:05.310Z,-6.80
2018-02-27T04:40:32.850Z,-6.80
2018-02-27T04:43:00.369Z,-6.80
2018-02-27T04:45:28.649Z,-6.80
2018-02-27T04:47:56.162Z,-6.80
2018-02-27T04:50:23.694Z,-6.70
2018-02-27T04:52:51.204Z,-6.90
2018-02-27T04:55:18.715Z,-6.90
2018-02-27T04:57:46.223Z,-7.00
2018-02-27T05:00:13.762Z,-7.20
2018-02-27T05:02:41.294Z,-7.30
2018-02-27T05:05:09.703Z,-7.40
2018-02-27T05:07:37.302Z,-7.40
2018-02-27T05:10:04.861Z,-7.40
2018-02-27T05:12:32.381Z,-7.50
2018-02-27T05:14:59.936Z,-7.50
2018-02-27T05:17:27.467Z,-7.50
2018-02-27T05:19:55.798Z,-7.40
2018-02-27T05:22:23.358Z,-7.40
2018-02-27T05:24:50.884Z,-7.30
2018-02-27T05:27:19.156Z,-7.40
2018-02-27T05:29:47.451Z,-7.30
2018-02-27T05:32:14.963Z,-7.30
2018-02-27T05:34:42.539Z,-7.20
2018-02-27T05:37:10.021Z,-7.10
2018-02-27T05:39:37.553Z,-7.10
2018-02-27T05:42:05.068Z,-7.10
2018-02-27T05:44:32.595Z,-7.20
2018-02-27T05:47:00.872Z,-7.30
2018-02-27T05:49:29.185Z,-7.20
2018-02-27T05:51:56.707Z,-7.20
2018-02-27T05:54:24.266Z,-7.20
2018-02-27T05:56:52.547Z,-7.40
2018-02-27T05:59:20.827Z,-7.50
2018-02-27T06:01:48.347Z,-7.50
2018-02-27T06:04:15.862Z,-7.40
2018-02-27T06:06:43.393Z,-7.40
2018-02-27T06:09:11.669Z,-7.10
2018-02-27T06:11:39.976Z,-7.20
2018-02-27T06:14:07.499Z,-7.20
2018-02-27T06:16:35.014Z,-7.00
2018-02-27T06:19:02.558Z,-7.00
2018-02-27T06:21:30.091Z,-7.00
2018-02-27T06:23:58.371Z,-7.20
2018-02-27T06:26:25.901Z,-7.20
2018-02-27T06:28:53.418Z,-7.20
2018-02-27T06:31:20.982Z,-7.20
2018-02-27T06:33:48.489Z,-7.20
2018-02-27T06:36:16.084Z,-7.20
2018-02-27T06:38:43.624Z,-7.20
2018-02-27T06:41:11.181Z,-7.30
2018-02-27T06:43:38.744Z,-7.40
2018-02-27T06:46:06.306Z,-7.40
2018-02-27T06:48:33.841Z,-7.40
2018-02-27T06:51:01.366Z,-7.30
2018-02-27T06:53:28.933Z,-7.30
2018-02-27T06:55:56.486Z,-7.20
2018-02-27T06:58:24.009Z,-7.20
2018-02-27T07:00:51.543Z,-7.20
2018-02-27T07:03:19.107Z,-7.20
2018-02-27T07:05:46.671Z,-7.30
2018-02-27T07:08:14.960Z,-7.00
2018-02-27T07:10:43.278Z,-7.10
2018-02-27T07:13:11.908Z,-7.10
2018-02-27T07:15:42.690Z,-7.10
2018-02-27T07:18:10.407Z,-7.10
2018-02-27T07:20:37.996Z,-7.10
2018-02-27T07:23:05.553Z,-6.90
2018-02-27T07:25:33.210Z,-6.80
2018-02-27T07:28:00.736Z,-6.70
2018-02-27T07:30:28.277Z,-6.70
2018-02-27T07:32:55.844Z,-6.60
2018-02-27T07:35:23.442Z,-6.50
2018-02-27T07:37:50.967Z,-6.50
2018-02-27T07:40:18.957Z,-6.30
2018-02-27T07:42:46.569Z,-6.20
2018-02-27T07:45:14.092Z,-6.20
2018-02-27T07:47:41.630Z,-6.20
2018-02-27T07:50:09.189Z,-6.20
2018-02-27T07:52:36.756Z,-6.20
2018-02-27T07:55:04.306Z,-6.30
2018-02-27T07:57:31.836Z,-6.30
2018-02-27T07:59:59.385Z,-6.00
2018-02-27T08:02:26.904Z,-6.10
2018-02-27T08:04:54.473Z,-6.10
2018-02-27T08:07:22.762Z,-6.20
2018-02-27T08:09:51.031Z,-6.20
2018-02-27T08:12:19.307Z,-6.40
2018-02-27T08:14:47.656Z,-6.40
2018-02-27T08:17:15.544Z,-6.40
2018-02-27T08:19:43.067Z,-6.30
2018-02-27T08:22:10.604Z,-6.10
2018-02-27T08:24:38.127Z,-5.90
2018-02-27T08:27:05.671Z,-5.80
2018-02-27T08:29:33.240Z,-5.70
2018-02-27T08:32:00.846Z,-5.50
2018-02-27T08:34:28.348Z,-5.30
2018-02-27T08:36:55.894Z,-5.10
2018-02-27T08:39:23.444Z,-5.10
2018-02-27T08:41:50.960Z,-5.00
2018-02-27T08:44:18.508Z,-4.70
2018-02-27T08:46:46.043Z,-4.80
2018-02-27T08:49:13.571Z,-4.60
2018-02-27T08:51:41.080Z,-4.40
2018-02-27T08:54:09.392Z,-4.20
2018-02-27T08:56:37.036Z,-4.30
2018-02-27T08:59:05.321Z,-4.50
2018-02-27T09:01:32.850Z,-4.50
2018-02-27T09:04:00.379Z,-4.40
2018-02-27T09:06:27.911Z,-4.20
2018-02-27T09:08:55.423Z,-4.10
2018-02-27T09:11:23.033Z,-4.00
2018-02-27T09:13:50.555Z,-4.00
2018-02-27T09:16:18.091Z,-3.90
2018-02-27T09:18:47.189Z,-3.40
2018-02-27T09:21:14.714Z,-3.40
2018-02-27T09:23:42.243Z,-3.40
2018-02-27T09:26:09.762Z,-3.70
2018-02-27T09:28:37.294Z,-3.70
2018-02-27T09:31:04.802Z,-4.00
2018-02-27T09:33:32.338Z,-4.00
2018-02-27T09:35:59.866Z,-3.90
2018-02-27T09:38:27.379Z,-3.70
2018-02-27T09:40:54.934Z,-3.60
2018-02-27T09:43:22.449Z,-3.40
2018-02-27T09:45:50.040Z,-3.10
2018-02-27T09:48:17.550Z,-3.10
2018-02-27T09:50:45.163Z,-3.20
2018-02-27T09:53:12.685Z,-3.00
2018-02-27T09:55:40.188Z,-2.90
2018-02-27T09:58:07.701Z,-2.80
2018-02-27T10:00:35.209Z,-2.70
2018-02-27T10:03:02.740Z,-2.50
2018-02-27T10:05:30.314Z,-2.40
2018-02-27T10:07:57.819Z,-2.40
2018-02-27T10:10:25.363Z,-2.50
2018-02-27T10:12:52.962Z,-2.40
2018-02-27T10:15:20.506Z,-2.30
2018-02-27T10:17:48.059Z,-2.10
2018-02-27T10:20:15.607Z,-1.80
2018-02-27T10:22:43.175Z,-1.70
2018-02-27T10:25:11.478Z,-1.70
2018-02-27T10:27:39.071Z,-1.80
2018-02-27T10:30:06.772Z,-1.50
2018-02-27T10:32:35.145Z,-1.00
2018-02-27T10:35:02.680Z,-1.00
2018-02-27T10:37:30.253Z,0.10
2018-02-27T10:39:57.790Z,1.30
2018-02-27T10:42:25.318Z,2.50
2018-02-27T10:44:52.839Z,3.60
2018-02-27T10:47:20.403Z,4.60
2018-02-27T10:49:48.736Z,5.40
2018-02-27T10:52:16.326Z,5.30
2018-02-27T10:54:43.849Z,5.70
2018-02-27T10:57:11.383Z,6.00
2018-02-27T10:59:38.912Z,6.20
2018-02-27T11:02:07.355Z,5.60
2018-02-27T11:04:34.943Z,5.60
2018-02-27T11:07:02.490Z,6.30
2018-02-27T11:09:29.997Z,6.80
2018-02-27T11:11:58.346Z,8.50
2018-02-27T11:14:25.864Z,8.40
2018-02-27T11:16:53.385Z,8.90
2018-02-27T11:19:21.671Z,9.10
2018-02-27T11:21:50.012Z,10.20
2018-02-27T11:24:17.544Z,10.10
2018-02-27T11:26:45.061Z,10.50
2018-02-27T11:29:13.341Z,10.40
2018-02-27T11:31:41.619Z,10.50
2018-02-27T11:34:09.921Z,10.10
2018-02-27T11:36:37.446Z,10.10
2018-02-27T11:39:04.984Z,9.80
2018-02-27T11:41:32.494Z,10.30
2018-02-27T11:44:00.011Z,10.90
2018-02-27T11:46:27.552Z,11.10
2018-02-27T11:48:55.063Z,11.10
2018-02-27T11:51:22.569Z,11.40
2018-02-27T11:53:50.099Z,10.40
2018-02-27T11:56:17.668Z,9.90
2018-02-27T11:58:45.227Z,9.40
2018-02-27T12:01:12.740Z,10.20
2018-02-27T12:03:41.035Z,11.20
2018-02-27T12:06:08.567Z,11.20
2018-02-27T12:08:36.097Z,12.70
2018-02-27T12:11:03.664Z,13.90
2018-02-27T12:13:31.253Z,14.60
2018-02-27T12:15:59.596Z,12.30
2018-02-27T12:18:27.123Z,12.20
2018-02-27T12:20:54.642Z,11.30
2018-02-27T12:23:22.157Z,10.60
2018-02-27T12:25:49.670Z,9.90
2018-02-27T12:28:17.205Z,10.20
2018-02-27T12:30:45.504Z,12.80
2018-02-27T12:33:13.794Z,12.10
2018-02-27T12:35:42.078Z,10.50
2018-02-27T12:38:10.356Z,9.80
2018-02-27T12:40:38.612Z,9.50
2018-02-27T12:43:06.893Z,10.30
2018-02-27T12:45:35.187Z,11.00
2018-02-27T12:48:02.709Z,10.90
2018-02-27T12:50:30.199Z,11.30
2018-02-27T12:52:57.784Z,11.40
2018-02-27T12:55:25.325Z,12.30
2018-02-27T12:57:52.840Z,12.30
2018-02-27T13:00:20.392Z,12.80
2018-02-27T13:02:47.899Z,13.10
2018-02-27T13:05:15.444Z,13.50
2018-02-27T13:07:43.714Z,14.00
2018-02-27T13:10:11.232Z,13.90
2018-02-27T13:12:38.735Z,13.10
2018-02-27T13:15:06.247Z,13.60
2018-02-27T13:17:33.768Z,14.40
2018-02-27T13:20:02.035Z,10.60
2018-02-27T13:22:30.330Z,10.00
2018-02-27T13:24:57.841Z,10.00
2018-02-27T13:27:25.396Z,9.60
2018-02-27T13:29:52.923Z,9.00
2018-02-27T13:32:20.430Z,7.30
2018-02-27T13:34:47.954Z,5.80
2018-02-27T13:37:15.527Z,4.50
2018-02-27T13:39:43.022Z,3.60
2018-02-27T13:42:10.570Z,2.80
2018-02-27T13:44:38.089Z,2.10
2018-02-27T13:47:05.589Z,1.50
2018-02-27T13:49:33.116Z,1.00
2018-02-27T13:52:00.628Z,1.30
2018-02-27T13:54:28.904Z,1.80
2018-02-27T13:56:57.229Z,1.80
2018-02-27T13:59:24.795Z,1.80
2018-02-27T14:01:52.291Z,1.70
2018-02-27T14:04:19.777Z,1.80
2018-02-27T14:06:47.283Z,2.10
2018-02-27T14:09:14.796Z,2.10
2018-02-27T14:11:42.304Z,2.20
2018-02-27T14:14:09.807Z,1.70
2018-02-27T14:16:37.392Z,1.40
2018-02-27T14:19:04.908Z,1.00
2018-02-27T14:21:33.222Z,0.80
2018-02-27T14:24:00.805Z,0.80
2018-02-27T14:26:28.368Z,0.90
2018-02-27T14:28:55.975Z,1.00
2018-02-27T14:31:24.281Z,0.60
2018-02-27T14:33:51.806Z,0.60
2018-02-27T14:36:20.075Z,0.80
2018-02-27T14:38:48.976Z,0.80
2018-02-27T14:41:16.480Z,0.80
2018-02-27T14:43:43.992Z,0.40
2018-02-27T14:46:12.267Z,0.40
2018-02-27T14:48:39.832Z,0.40
2018-02-27T14:51:07.359Z,0.40
2018-02-27T14:53:34.885Z,0.20
2018-02-27T14:56:02.408Z,-0.10
2018-02-27T14:58:29.926Z,-0.40
2018-02-27T15:00:57.476Z,-0.30
2018-02-27T15:03:25.018Z,-0.50
2018-02-27T15:05:52.594Z,-0.60
2018-02-27T15:08:20.167Z,-0.30
2018-02-27T15:10:47.699Z,-0.10
2018-02-27T15:13:15.265Z,-0.10
2018-02-27T15:15:42.784Z,-0.10
2018-02-27T15:18:11.146Z,-0.20
2018-02-27T15:20:38.687Z,-0.10
2018-02-27T15:23:06.964Z,0.20
2018-02-27T15:25:34.498Z,0.20
2018-02-27T15:28:02.052Z,0.20
2018-02-27T15:30:29.572Z,0.30
2018-02-27T15:32:57.107Z,0.40
2018-02-27T15:35:24.644Z,0.40
2018-02-27T15:37:52.186Z,-0.10
2018-02-27T15:40:19.708Z,-0.30
2018-02-27T15:42:47.235Z,-0.60
2018-02-27T15:45:14.749Z,-1.00
2018-02-27T15:47:43.191Z,-1.20
2018-02-27T15:50:10.790Z,-1.20
2018-02-27T15:52:38.942Z,-1.20
2018-02-27T15:55:07.266Z,-1.10
2018-02-27T15:57:34.816Z,-1.20
2018-02-27T16:00:02.779Z,-1.30
2018-02-27T16:02:31.061Z,-2.00
2018-02-27T16:05:01.713Z,-2.00
2018-02-27T16:07:29.232Z,-2.10
2018-02-27T16:09:57.546Z,-2.10
2018-02-27T16:12:25.099Z,-2.20
2018-02-27T16:14:53.122Z,-2.40
2018-02-27T16:17:20.667Z,-2.30
2018-02-27T16:19:48.173Z,-2.20
2018-02-27T16:22:15.717Z,-2.40
2018-02-27T16:24:44.034Z,-2.40
2018-02-27T16:27:11.555Z,-2.40
2018-02-27T16:29:39.838Z,-2.50
2018-02-27T16:32:08.133Z,-2.40
2018-02-27T16:34:35.671Z,-2.50
2018-02-27T16:37:03.473Z,-2.50
2018-02-27T16:39:31.061Z,-2.60
2018-02-27T16:41:58.594Z,-2.60
2018-02-27T16:44:26.220Z,-2.60
2018-02-27T16:46:56.069Z,-2.60
2018-02-27T16:49:23.622Z,-2.60
2018-02-27T16:51:51.141Z,-2.70
2018-02-27T16:54:18.704Z,-2.60
2018-02-27T16:56:46.235Z,-2.70
2018-02-27T16:59:13.798Z,-2.80
2018-02-27T17:01:41.317Z,-3.00
2018-02-27T17:04:08.869Z,-3.20
2018-02-27T17:06:36.577Z,-3.30
2018-02-27T17:09:04.135Z,-3.50
2018-02-27T17:11:31.700Z,-3.60
2018-02-27T17:14:00.146Z,-3.60
2018-02-27T17:16:27.686Z,-3.70
2018-02-27T17:18:56.098Z,-3.70
2018-02-27T17:21:23.644Z,-3.70
2018-02-27T17:23:51.164Z,-3.70
2018-02-27T17:26:18.721Z,-3.80
2018-02-27T17:28:46.248Z,-3.90
2018-02-27T17:31:13.812Z,-4.00
2018-02-27T17:33:41.331Z,-4.00
2018-02-27T17:36:08.868Z,-4.00
2018-02-27T17:38:36.384Z,-4.10
2018-02-27T17:41:03.910Z,-4.10
2018-02-27T17:43:31.488Z,-4.20
2018-02-27T17:45:59.023Z,-4.20
2018-02-27T17:48:27.325Z,-4.30
2018-02-27T17:50:56.283Z,-4.40
2018-02-27T17:53:23.820Z,-4.30
2018-02-27T17:55:51.361Z,-4.30
2018-02-27T17:58:18.871Z,-4.20
2018-02-27T18:00:46.419Z,-4.30
2018-02-27T18:03:14.746Z,-4.40
2018-02-27T18:05:42.322Z,-4.40
2018-02-27T18:08:09.865Z,-4.40
2018-02-27T18:10:37.426Z,-4.40
2018-02-27T18:13:04.976Z,-4.50
2018-02-27T18:15:32.515Z,-4.60
2018-02-27T18:18:00.067Z,-4.60
2018-02-27T18:20:27.613Z,-4.60
2018-02-27T18:22:55.158Z,-4.60
2018-02-27T18:25:42.892Z,-4.60
2018-02-27T18:28:10.505Z,-4.60
2018-02-27T18:30:38.023Z,-4.80
2018-02-27T18:33:05.573Z,-4.80
2018-02-27T18:35:33.101Z,-4.80
2018-02-27T18:38:00.656Z,-4.70
2018-02-27T18:40:29.231Z,-4.80
2018-02-27T18:42:56.766Z,-4.70
2018-02-27T18:45:25.090Z,-4.70
2018-02-27T18:47:52.627Z,-4.70
2018-02-27T18:50:20.172Z,-4.60
2018-02-27T18:52:47.703Z,-4.70
2018-02-27T18:55:15.305Z,-4.70
2018-02-27T18:57:42.868Z,-4.70
2018-02-27T19:00:10.406Z,-4.80
2018-02-27T19:02:38.695Z,-4.80
2018-02-27T19:05:06.235Z,-4.80
2018-02-27T19:07:33.818Z,-4.80
2018-02-27T19:10:01.355Z,-4.90
2018-02-27T19:12:28.880Z,-4.90
2018-02-27T19:14:56.419Z,-4.90
2018-02-27T19:17:23.956Z,-4.90
2018-02-27T19:19:51.542Z,-4.90
2018-02-27T19:22:19.075Z,-4.90
2018-02-27T19:24:46.616Z,-4.90
2018-02-27T19:27:14.927Z,-4.90
2018-02-27T19:29:42.472Z,-5.00
2018-02-27T19:32:10.093Z,-5.00
2018-02-27T19:34:37.618Z,-5.00
2018-02-27T19:37:05.180Z,-5.10
2018-02-27T19:39:32.775Z,-5.10
2018-02-27T19:42:00.340Z,-5.20
2018-02-27T19:44:28.009Z,-5.20
2018-02-27T19:46:56.445Z,-5.20
2018-02-27T19:49:23.968Z,-5.20
2018-02-27T19:51:51.535Z,-5.20
2018-02-27T19:54:19.043Z,-5.20
2018-02-27T19:56:47.912Z,-5.20
2018-02-27T19:59:15.467Z,-5.20
2018-02-27T20:01:43.025Z,-5.20
2018-02-27T20:04:10.565Z,-5.30
2018-02-27T20:06:38.126Z,-5.20
2018-02-27T20:09:05.661Z,-5.20
2018-02-27T20:11:33.197Z,-5.20
2018-02-27T20:14:00.790Z,-5.20
2018-02-27T20:16:28.331Z,-5.20
2018-02-27T20:18:55.964Z,-5.20
2018-02-27T20:21:23.605Z,-5.10
2018-02-27T20:23:56.895Z,-5.30
2018-02-27T20:26:24.543Z,-5.40
2018-02-27T20:28:57.700Z,-5.30
2018-02-27T20:31:25.261Z,-5.30
2018-02-27T20:33:52.959Z,-5.30
2018-02-27T20:36:20.514Z,-5.40
2018-02-27T20:38:54.459Z,-5.50
2018-02-27T20:41:21.986Z,-5.50
2018-02-27T20:43:49.522Z,-5.40
2018-02-27T20:46:17.066Z,-5.60
2018-02-27T20:48:44.604Z,-5.80
2018-02-27T20:51:12.139Z,-5.80
2018-02-27T20:53:39.667Z,-5.90
2018-02-27T20:56:07.980Z,-6.00
2018-02-27T20:58:35.533Z,-6.00
2018-02-27T21:01:03.074Z,-6.10
2018-02-27T21:03:31.396Z,-6.20
2018-02-27T21:05:58.932Z,-6.30
2018-02-27T21:08:26.519Z,-6.20
2018-02-27T21:10:54.083Z,-6.20
2018-02-27T21:13:21.622Z,-6.10
2018-02-27T21:15:49.928Z,-6.10
2018-02-27T21:18:17.509Z,-6.10
2018-02-27T21:20:45.035Z,-6.00
2018-02-27T21:23:12.611Z,-6.20
2018-02-27T21:25:40.158Z,-6.50
2018-02-27T21:28:07.720Z,-6.70
2018-02-27T21:30:36.069Z,-7.00
2018-02-27T21:33:03.667Z,-7.00
2018-02-27T21:35:31.184Z,-7.20
2018-02-27T21:37:58.700Z,-7.20
2018-02-27T21:40:26.226Z,-7.10
2018-02-27T21:42:53.772Z,-7.00
2018-02-27T21:45:21.291Z,-7.10
2018-02-27T21:47:48.828Z,-7.10
2018-02-27T21:50:16.401Z,-7.20
2018-02-27T21:52:44.709Z,-7.00
2018-02-27T21:55:14.360Z,-7.10
2018-02-27T21:57:43.060Z,-7.10
2018-02-27T22:00:11.400Z,-7.10
2018-02-27T22:02:39.017Z,-7.10
2018-02-27T22:05:06.562Z,-7.10
2018-02-27T22:07:34.261Z,-7.30
2018-02-27T22:10:02.640Z,-7.40
2018-02-27T22:12:30.169Z,-7.40
2018-02-27T22:14:57.755Z,-7.30
2018-02-27T22:17:25.363Z,-7.20
2018-02-27T22:19:52.899Z,-7.10
2018-02-27T22:22:20.490Z,-7.00
2018-02-27T22:24:48.010Z,-7.20
2018-02-27T22:27:15.556Z,-7.20
2018-02-27T22:29:43.868Z,-7.50
2018-02-27T22:32:11.405Z,-7.50
2018-02-27T22:34:38.932Z,-7.60
2018-02-27T22:37:06.461Z,-7.60
2018-02-27T22:39:34.009Z,-7.60
2018-02-27T22:42:01.582Z,-7.60
2018-02-27T22:44:29.124Z,-7.60
2018-02-27T22:46:56.659Z,-7.60
2018-02-27T22:49:24.955Z,-7.60
2018-02-27T22:51:52.481Z,-7.60
2018-02-27T22:54:20.016Z,-7.50
2018-02-27T22:56:48.556Z,-7.40
2018-02-27T22:59:16.216Z,-7.40
2018-02-27T23:01:43.792Z,-7.40
2018-02-27T23:04:11.336Z,-7.50
2018-02-27T23:06:38.931Z,-7.70
2018-02-27T23:09:06.457Z,-7.70
2018-02-27T23:11:33.994Z,-7.80
2018-02-27T23:14:01.510Z,-7.90
2018-02-27T23:16:29.063Z,-7.90
2018-02-27T23:18:56.639Z,-8.00
2018-02-27T23:21:24.200Z,-8.00
2018-02-27T23:23:55.916Z,-8.10
2018-02-27T23:26:32.856Z,-8.10
2018-02-27T23:29:01.858Z,-8.10
2018-02-27T23:31:30.939Z,-8.10
2018-02-27T23:34:00.369Z,-8.00
2018-02-27T23:36:28.679Z,-8.00
2018-02-27T23:38:56.396Z,-8.10
2018-02-27T23:41:23.910Z,-8.20
2018-02-27T23:43:51.473Z,-8.20
2018-02-27T23:46:19.026Z,-8.20
2018-02-27T23:48:46.543Z,-8.20
2018-02-27T23:51:14.842Z,-8.30
2018-02-27T23:53:42.376Z,-8.40
2018-02-27T23:56:10.677Z,-8.30
2018-02-27T23:58:38.954Z,-8.30
